createdAt,value
2022-11-16T00:01:02.918Z,11.59
2022-11-16T00:03:33.874Z,11.59
2022-11-16T00:06:03.895Z,11.55
2022-11-16T00:08:33.922Z,11.60
2022-11-16T00:11:06.629Z,11.56
2022-11-16T00:13:34.609Z,11.47
2022-11-16T00:16:03.650Z,11.47
2022-11-16T00:18:34.263Z,11.49
2022-11-16T00:21:05.506Z,11.50
2022-11-16T00:23:36.346Z,11.47
2022-11-16T00:26:06.134Z,11.39
2022-11-16T00:28:35.524Z,11.37
2022-11-16T00:31:05.788Z,11.38
2022-11-16T00:33:36.132Z,11.36
2022-11-16T00:36:06.677Z,11.32
2022-11-16T00:38:35.731Z,11.30
2022-11-16T00:41:04.308Z,11.27
2022-11-16T00:43:33.171Z,11.31
2022-11-16T00:46:01.407Z,11.35
2022-11-16T00:48:29.740Z,11.35
2022-11-16T00:50:59.397Z,11.37
2022-11-16T00:53:27.708Z,11.34
2022-11-16T00:55:56.134Z,11.34
2022-11-16T00:58:25.542Z,11.33
2022-11-16T01:01:06.088Z,11.31
2022-11-16T01:03:34.353Z,11.33
2022-11-16T01:06:08.347Z,11.29
2022-11-16T01:08:39.427Z,11.33
2022-11-16T01:11:26.366Z,11.33
2022-11-16T01:13:55.116Z,11.13
2022-11-16T01:16:24.825Z,11.03
2022-11-16T01:18:55.364Z,10.98
2022-11-16T01:21:25.752Z,10.92
2022-11-16T01:23:54.358Z,10.92
2022-11-16T01:26:22.635Z,10.89
2022-11-16T01:28:51.113Z,10.90
2022-11-16T01:31:19.507Z,11.00
2022-11-16T01:33:50.384Z,11.06
2022-11-16T01:36:24.937Z,11.09
2022-11-16T01:38:55.463Z,11.03
2022-11-16T01:41:28.844Z,10.98
2022-11-16T01:44:04.559Z,10.99
2022-11-16T01:46:38.936Z,10.96
2022-11-16T01:49:14.037Z,11.02
2022-11-16T01:51:48.828Z,11.08
2022-11-16T01:54:17.775Z,11.13
2022-11-16T01:57:04.119Z,11.27
2022-11-16T01:59:37.708Z,11.33
2022-11-16T02:02:07.915Z,11.36
2022-11-16T02:04:36.381Z,11.42
2022-11-16T02:07:17.076Z,11.47
2022-11-16T02:10:01.246Z,11.51
2022-11-16T02:12:50.943Z,11.40
2022-11-16T02:15:28.595Z,11.39
2022-11-16T02:18:18.574Z,11.33
2022-11-16T02:21:20.571Z,11.34
2022-11-16T02:24:12.937Z,11.34
2022-11-16T02:27:17.084Z,11.36
2022-11-16T02:29:51.229Z,11.34
2022-11-16T02:32:25.773Z,11.38
2022-11-16T02:34:58.625Z,11.40
2022-11-16T02:37:30.300Z,11.40
2022-11-16T02:40:02.506Z,11.43
2022-11-16T02:42:37.097Z,11.40
2022-11-16T02:45:13.581Z,11.38
2022-11-16T02:47:45.200Z,11.35
2022-11-16T02:50:18.056Z,11.33
2022-11-16T02:52:46.233Z,11.28
2022-11-16T02:55:15.373Z,11.32
2022-11-16T02:57:52.642Z,11.36
2022-11-16T03:00:28.492Z,11.34
2022-11-16T03:03:11.768Z,11.36
2022-11-16T03:05:46.149Z,11.38
2022-11-16T03:08:21.509Z,11.36
2022-11-16T03:11:12.566Z,11.37
2022-11-16T03:13:43.139Z,11.29
2022-11-16T03:16:17.128Z,11.33
2022-11-16T03:18:47.733Z,11.28
2022-11-16T03:21:24.294Z,11.28
2022-11-16T03:23:52.760Z,11.31
2022-11-16T03:26:25.651Z,11.39
2022-11-16T03:28:59.692Z,11.39
2022-11-16T03:31:32.538Z,11.44
2022-11-16T03:34:05.851Z,11.51
2022-11-16T03:36:37.207Z,11.47
2022-11-16T03:39:11.724Z,11.52
2022-11-16T03:41:43.396Z,11.54
2022-11-16T03:44:15.327Z,11.47
2022-11-16T03:46:46.730Z,11.46
2022-11-16T03:49:16.285Z,11.45
2022-11-16T03:51:44.776Z,11.47
2022-11-16T03:54:13.069Z,11.43
2022-11-16T03:56:41.807Z,11.36
2022-11-16T03:59:10.636Z,11.34
2022-11-16T04:01:43.373Z,11.35
2022-11-16T04:04:29.162Z,11.30
2022-11-16T04:07:16.048Z,11.29
2022-11-16T04:10:01.618Z,11.22
2022-11-16T04:12:47.682Z,11.12
2022-11-16T04:15:33.157Z,11.16
2022-11-16T04:18:19.726Z,11.17
2022-11-16T04:21:06.892Z,11.20
2022-11-16T04:23:52.892Z,11.25
2022-11-16T04:26:41.067Z,11.24
2022-11-16T04:29:08.254Z,11.24
2022-11-16T04:31:54.288Z,11.24
2022-11-16T04:34:40.209Z,11.30
2022-11-16T04:37:28.790Z,11.38
2022-11-16T04:39:57.019Z,11.47
2022-11-16T04:42:25.283Z,11.55
2022-11-16T04:45:10.701Z,11.61
2022-11-16T04:47:46.143Z,11.65
2022-11-16T04:50:14.322Z,11.70
2022-11-16T04:52:45.627Z,11.72
2022-11-16T04:55:16.041Z,11.77
2022-11-16T04:57:46.617Z,11.79
2022-11-16T05:00:15.984Z,11.82
2022-11-16T05:02:45.169Z,11.81
2022-11-16T05:05:13.809Z,11.86
2022-11-16T05:07:46.107Z,11.88
2022-11-16T05:10:20.940Z,11.93
2022-11-16T05:12:50.736Z,11.94
2022-11-16T05:15:19.985Z,11.96
2022-11-16T05:17:51.149Z,11.97
2022-11-16T05:20:42.029Z,12.00
2022-11-16T05:23:26.989Z,11.93
2022-11-16T05:25:57.358Z,11.84
2022-11-16T05:28:29.255Z,11.81
2022-11-16T05:30:58.641Z,11.77
2022-11-16T05:33:29.096Z,11.74
2022-11-16T05:35:57.323Z,11.75
2022-11-16T05:38:29.079Z,11.69
2022-11-16T05:40:59.871Z,11.70
2022-11-16T05:43:30.579Z,11.70
2022-11-16T05:46:14.657Z,11.70
2022-11-16T05:48:43.629Z,11.76
2022-11-16T05:51:12.141Z,11.82
2022-11-16T05:53:42.728Z,11.87
2022-11-16T05:56:14.715Z,11.93
2022-11-16T05:58:44.713Z,11.93
2022-11-16T06:01:13.525Z,11.95
2022-11-16T06:03:42.951Z,12.00
2022-11-16T06:06:11.632Z,12.07
2022-11-16T06:08:41.436Z,12.06
2022-11-16T06:11:14.745Z,12.13
2022-11-16T06:13:45.700Z,12.16
2022-11-16T06:16:14.637Z,12.11
2022-11-16T06:18:44.393Z,12.08
2022-11-16T06:21:17.585Z,12.05
2022-11-16T06:23:48.587Z,11.97
2022-11-16T06:26:17.608Z,12.01
2022-11-16T06:28:46.849Z,12.04
2022-11-16T06:31:15.562Z,12.04
2022-11-16T06:33:43.743Z,12.02
2022-11-16T06:36:20.328Z,12.02
2022-11-16T06:38:51.305Z,12.06
2022-11-16T06:41:21.020Z,12.08
2022-11-16T06:43:51.013Z,12.09
2022-11-16T06:46:22.368Z,12.09
2022-11-16T06:48:50.654Z,12.12
2022-11-16T06:51:19.578Z,12.04
2022-11-16T06:53:50.469Z,12.10
2022-11-16T06:56:19.656Z,12.09
2022-11-16T06:58:53.786Z,12.11
2022-11-16T07:01:24.656Z,12.16
2022-11-16T07:03:59.759Z,12.24
2022-11-16T07:06:29.197Z,12.29
2022-11-16T07:08:59.821Z,12.30
2022-11-16T07:11:31.859Z,12.35
2022-11-16T07:14:00.538Z,12.31
2022-11-16T07:16:30.441Z,12.30
2022-11-16T07:19:02.150Z,12.34
2022-11-16T07:21:32.492Z,12.31
2022-11-16T07:24:05.261Z,12.33
2022-11-16T07:26:34.345Z,12.37
2022-11-16T07:29:09.956Z,12.31
2022-11-16T07:31:42.161Z,12.29
2022-11-16T07:34:33.460Z,12.36
2022-11-16T07:37:08.178Z,12.38
2022-11-16T07:39:37.739Z,12.39
2022-11-16T07:42:11.834Z,12.36
2022-11-16T07:45:07.767Z,12.39
2022-11-16T07:47:41.090Z,12.43
2022-11-16T07:50:14.960Z,12.45
2022-11-16T07:52:46.476Z,12.43
2022-11-16T07:55:25.509Z,12.44
2022-11-16T07:57:54.119Z,12.49
2022-11-16T08:00:24.625Z,12.51
2022-11-16T08:03:00.442Z,12.54
2022-11-16T08:05:29.733Z,12.60
2022-11-16T08:07:57.846Z,12.63
2022-11-16T08:10:30.169Z,12.62
2022-11-16T08:13:00.125Z,12.63
2022-11-16T08:15:28.415Z,12.59
2022-11-16T08:17:58.673Z,12.62
2022-11-16T08:20:28.857Z,12.58
2022-11-16T08:23:00.998Z,12.60
2022-11-16T08:25:34.003Z,12.68
2022-11-16T08:28:02.809Z,12.72
2022-11-16T08:30:31.855Z,12.71
2022-11-16T08:33:01.414Z,12.70
2022-11-16T08:35:29.780Z,12.72
2022-11-16T08:37:58.589Z,12.72
2022-11-16T08:40:29.082Z,12.78
2022-11-16T08:42:59.583Z,12.80
2022-11-16T08:45:28.069Z,12.85
2022-11-16T08:48:03.554Z,12.79
2022-11-16T08:50:55.503Z,12.86
2022-11-16T08:53:22.665Z,12.92
2022-11-16T08:55:50.871Z,12.96
2022-11-16T08:58:20.716Z,13.03
2022-11-16T09:00:48.971Z,13.05
2022-11-16T09:03:17.107Z,13.10
2022-11-16T09:05:46.821Z,13.11
2022-11-16T09:08:14.978Z,13.11
2022-11-16T09:10:43.415Z,13.16
2022-11-16T09:13:11.612Z,13.22
2022-11-16T09:15:41.154Z,13.17
2022-11-16T09:18:09.233Z,13.21
2022-11-16T09:20:37.393Z,13.23
2022-11-16T09:23:05.565Z,13.26
2022-11-16T09:25:35.105Z,13.29
2022-11-16T09:28:03.238Z,13.28
2022-11-16T09:30:31.507Z,13.29
2022-11-16T09:33:01.156Z,13.30
2022-11-16T09:35:29.297Z,13.30
2022-11-16T09:37:57.396Z,13.30
2022-11-16T09:40:29.554Z,13.34
2022-11-16T09:43:07.500Z,13.34
2022-11-16T09:45:45.645Z,13.39
2022-11-16T09:48:17.521Z,13.35
2022-11-16T09:50:48.235Z,13.36
2022-11-16T09:53:31.744Z,13.36
2022-11-16T09:56:04.199Z,13.38
2022-11-16T09:58:40.066Z,13.36
2022-11-16T10:01:22.374Z,13.35
2022-11-16T10:03:56.969Z,13.30
2022-11-16T10:06:34.174Z,13.31
2022-11-16T10:09:02.420Z,13.25
2022-11-16T10:12:02.922Z,13.14
2022-11-16T10:15:01.594Z,13.13
2022-11-16T10:17:41.520Z,13.11
2022-11-16T10:20:30.880Z,13.13
2022-11-16T10:23:09.867Z,13.14
2022-11-16T10:25:44.138Z,13.03
2022-11-16T10:28:31.544Z,12.94
2022-11-16T10:31:08.324Z,12.83
2022-11-16T10:33:39.597Z,12.88
2022-11-16T10:36:14.128Z,12.86
2022-11-16T10:38:44.228Z,12.80
2022-11-16T10:41:20.509Z,12.88
2022-11-16T10:43:50.598Z,12.98
2022-11-16T10:46:25.073Z,12.99
2022-11-16T10:49:02.166Z,12.95
2022-11-16T10:51:35.494Z,12.92
2022-11-16T10:54:04.733Z,12.78
2022-11-16T10:56:37.528Z,12.72
2022-11-16T10:59:07.404Z,12.69
2022-11-16T11:01:38.826Z,12.67
2022-11-16T11:04:22.093Z,12.62
2022-11-16T11:06:53.396Z,12.62
2022-11-16T11:09:26.970Z,12.75
2022-11-16T11:12:21.793Z,12.65
2022-11-16T11:15:01.082Z,12.61
2022-11-16T11:17:30.254Z,12.66
2022-11-16T11:20:00.708Z,12.67
2022-11-16T11:22:31.720Z,12.87
2022-11-16T11:25:03.313Z,12.89
2022-11-16T11:27:35.139Z,12.91
2022-11-16T11:30:04.088Z,12.72
2022-11-16T11:32:41.567Z,12.76
2022-11-16T11:35:24.077Z,12.54
2022-11-16T11:37:56.591Z,12.37
2022-11-16T11:40:25.570Z,12.29
2022-11-16T11:42:57.376Z,12.20
2022-11-16T11:45:34.165Z,12.15
2022-11-16T11:48:04.283Z,12.25
2022-11-16T11:50:43.774Z,12.07
2022-11-16T11:53:25.267Z,11.89
2022-11-16T11:55:58.389Z,11.92
2022-11-16T11:58:31.533Z,11.85
2022-11-16T12:01:22.207Z,11.80
2022-11-16T12:04:45.332Z,11.79
2022-11-16T12:07:26.551Z,11.70
2022-11-16T12:10:02.085Z,11.62
2022-11-16T12:12:44.896Z,11.54
2022-11-16T12:15:33.256Z,11.57
2022-11-16T12:18:15.485Z,11.54
2022-11-16T12:20:52.212Z,11.52
2022-11-16T12:23:50.565Z,11.47
2022-11-16T12:26:30.449Z,11.51
2022-11-16T12:29:14.060Z,11.55
2022-11-16T12:32:03.191Z,11.53
2022-11-16T12:34:45.786Z,11.59
2022-11-16T12:37:19.612Z,11.63
2022-11-16T12:40:01.617Z,11.67
2022-11-16T12:42:43.029Z,11.71
2022-11-16T12:45:34.357Z,11.78
2022-11-16T12:48:30.288Z,11.91
2022-11-16T12:51:05.007Z,12.02
2022-11-16T12:54:14.452Z,12.06
2022-11-16T12:56:51.944Z,12.14
2022-11-16T12:59:34.735Z,12.27
2022-11-16T13:02:14.005Z,12.33
2022-11-16T13:04:46.453Z,12.46
2022-11-16T13:07:21.420Z,12.55
2022-11-16T13:09:54.254Z,12.66
2022-11-16T13:12:24.554Z,12.84
2022-11-16T13:14:57.334Z,13.13
2022-11-16T13:17:28.944Z,13.46
2022-11-16T13:20:17.666Z,13.81
2022-11-16T13:22:53.461Z,14.10
2022-11-16T13:25:28.697Z,14.27
2022-11-16T13:28:03.009Z,14.45
2022-11-16T13:30:40.124Z,14.57
2022-11-16T13:33:27.963Z,14.61
2022-11-16T13:35:56.371Z,14.69
2022-11-16T13:38:52.349Z,14.76
2022-11-16T13:41:33.218Z,14.83
2022-11-16T13:44:03.020Z,14.86
2022-11-16T13:46:55.743Z,14.99
2022-11-16T13:49:32.189Z,15.00
2022-11-16T13:52:22.099Z,15.08
2022-11-16T13:54:54.713Z,15.09
2022-11-16T13:57:27.175Z,15.11
2022-11-16T14:00:11.049Z,15.20
2022-11-16T14:02:42.601Z,15.22
2022-11-16T14:05:18.236Z,15.19
2022-11-16T14:07:49.885Z,15.32
2022-11-16T14:11:02.824Z,15.36
2022-11-16T14:13:42.341Z,15.45
2022-11-16T14:16:55.487Z,15.37
2022-11-16T14:19:55.799Z,15.44
2022-11-16T14:22:45.184Z,15.47
2022-11-16T14:25:35.128Z,15.55
2022-11-16T14:28:19.238Z,15.67
2022-11-16T14:30:58.040Z,15.66
2022-11-16T14:33:32.817Z,15.66
2022-11-16T14:36:04.543Z,15.80
2022-11-16T14:38:35.255Z,15.81
2022-11-16T14:41:06.277Z,15.81
2022-11-16T14:43:40.029Z,15.87
2022-11-16T14:46:15.919Z,15.77
2022-11-16T14:48:47.070Z,15.83
2022-11-16T14:51:21.774Z,15.86
2022-11-16T14:53:53.472Z,15.82
2022-11-16T14:56:22.903Z,15.76
2022-11-16T14:58:56.692Z,15.73
2022-11-16T15:01:29.313Z,15.69
2022-11-16T15:04:02.778Z,15.71
2022-11-16T15:06:43.836Z,15.63
2022-11-16T15:09:20.976Z,15.59
2022-11-16T15:12:08.528Z,15.45
2022-11-16T15:14:42.833Z,15.35
2022-11-16T15:17:18.208Z,15.27
2022-11-16T15:19:55.586Z,14.97
2022-11-16T15:22:28.014Z,14.83
2022-11-16T15:24:57.861Z,14.77
2022-11-16T15:27:36.652Z,14.71
2022-11-16T15:30:15.818Z,14.64
2022-11-16T15:32:45.243Z,14.63
2022-11-16T15:35:22.675Z,14.56
2022-11-16T15:38:03.776Z,14.51
2022-11-16T15:40:32.235Z,14.51
2022-11-16T15:43:02.417Z,14.39
2022-11-16T15:45:32.550Z,14.30
2022-11-16T15:48:03.468Z,14.32
2022-11-16T15:50:32.500Z,14.18
2022-11-16T15:53:02.120Z,14.12
2022-11-16T15:55:35.184Z,13.95
2022-11-16T15:58:06.901Z,14.04
2022-11-16T16:00:37.698Z,14.04
2022-11-16T16:03:16.172Z,13.93
2022-11-16T16:05:44.580Z,13.99
2022-11-16T16:08:36.330Z,14.03
2022-11-16T16:11:13.428Z,14.07
2022-11-16T16:13:43.713Z,13.96
2022-11-16T16:16:21.115Z,14.00
2022-11-16T16:18:49.838Z,14.03
2022-11-16T16:21:18.797Z,14.08
2022-11-16T16:23:51.064Z,14.07
2022-11-16T16:26:19.983Z,14.02
2022-11-16T16:28:48.647Z,14.00
2022-11-16T16:31:19.913Z,13.99
2022-11-16T16:33:48.137Z,13.94
2022-11-16T16:36:16.384Z,13.94
2022-11-16T16:38:45.873Z,13.98
2022-11-16T16:41:23.947Z,14.00
2022-11-16T16:43:52.663Z,13.89
2022-11-16T16:46:21.810Z,13.85
2022-11-16T16:48:51.885Z,13.86
2022-11-16T16:51:20.413Z,13.90
2022-11-16T16:53:49.114Z,13.94
2022-11-16T16:56:20.047Z,13.90
2022-11-16T16:58:50.142Z,13.90
2022-11-16T17:01:18.912Z,13.87
2022-11-16T17:03:47.458Z,13.83
2022-11-16T17:06:17.166Z,13.84
2022-11-16T17:08:45.370Z,13.80
2022-11-16T17:11:16.019Z,13.83
2022-11-16T17:13:45.745Z,13.88
2022-11-16T17:16:13.924Z,13.92
2022-11-16T17:18:42.493Z,13.96
2022-11-16T17:21:11.226Z,13.97
2022-11-16T17:23:39.724Z,13.84
2022-11-16T17:26:09.902Z,13.90
2022-11-16T17:28:38.464Z,13.91
2022-11-16T17:31:11.478Z,13.83
2022-11-16T17:33:41.363Z,13.88
2022-11-16T17:36:12.842Z,13.95
2022-11-16T17:38:41.898Z,13.93
2022-11-16T17:41:13.190Z,13.93
2022-11-16T17:43:43.167Z,13.96
2022-11-16T17:46:14.827Z,13.91
2022-11-16T17:48:45.259Z,13.97
2022-11-16T17:51:15.235Z,14.03
2022-11-16T17:53:44.391Z,14.13
2022-11-16T17:56:13.998Z,14.07
2022-11-16T17:58:42.815Z,14.03
2022-11-16T18:01:13.680Z,14.01
2022-11-16T18:03:41.988Z,14.02
2022-11-16T18:06:13.363Z,13.98
2022-11-16T18:08:43.684Z,14.06
2022-11-16T18:11:14.860Z,14.09
2022-11-16T18:13:44.742Z,14.10
2022-11-16T18:16:16.583Z,14.05
2022-11-16T18:18:45.992Z,13.96
2022-11-16T18:21:20.417Z,13.99
2022-11-16T18:23:50.708Z,13.91
2022-11-16T18:26:21.228Z,13.77
2022-11-16T18:28:49.667Z,13.75
2022-11-16T18:31:21.077Z,13.76
2022-11-16T18:33:50.286Z,13.71
2022-11-16T18:36:19.739Z,13.70
2022-11-16T18:38:48.768Z,13.76
2022-11-16T18:41:20.317Z,13.72
2022-11-16T18:43:51.414Z,13.78
2022-11-16T18:46:25.527Z,13.69
2022-11-16T18:48:57.925Z,13.75
2022-11-16T18:51:30.077Z,13.68
2022-11-16T18:54:01.178Z,13.75
2022-11-16T18:56:31.562Z,13.82
2022-11-16T18:59:02.264Z,13.82
2022-11-16T19:01:32.103Z,13.82
2022-11-16T19:04:00.479Z,13.89
2022-11-16T19:06:32.201Z,13.96
2022-11-16T19:09:00.826Z,13.94
2022-11-16T19:11:29.681Z,14.02
2022-11-16T19:14:01.007Z,14.05
2022-11-16T19:16:29.510Z,13.98
2022-11-16T19:19:01.394Z,14.08
2022-11-16T19:21:30.197Z,14.12
2022-11-16T19:23:59.081Z,14.09
2022-11-16T19:26:28.919Z,14.06
2022-11-16T19:28:57.710Z,14.03
2022-11-16T19:31:27.574Z,14.05
2022-11-16T19:33:56.444Z,14.01
2022-11-16T19:36:28.607Z,14.07
2022-11-16T19:38:57.366Z,14.00
2022-11-16T19:41:26.801Z,14.01
2022-11-16T19:43:57.370Z,13.84
2022-11-16T19:46:26.243Z,13.62
2022-11-16T19:48:54.703Z,13.50
2022-11-16T19:51:26.887Z,13.44
2022-11-16T19:53:55.585Z,13.35
2022-11-16T19:56:25.072Z,13.30
2022-11-16T19:58:53.559Z,13.25
2022-11-16T20:01:25.419Z,13.17
2022-11-16T20:03:55.291Z,13.13
2022-11-16T20:06:29.184Z,13.16
2022-11-16T20:09:01.077Z,13.11
2022-11-16T20:11:33.806Z,13.05
2022-11-16T20:14:04.013Z,12.95
2022-11-16T20:16:38.692Z,12.93
2022-11-16T20:19:08.656Z,12.91
2022-11-16T20:21:40.331Z,12.95
2022-11-16T20:24:11.683Z,12.93
2022-11-16T20:26:44.043Z,12.94
2022-11-16T20:29:14.362Z,12.78
2022-11-16T20:31:45.366Z,12.81
2022-11-16T20:34:18.571Z,12.80
2022-11-16T20:36:50.823Z,12.80
2022-11-16T20:39:21.168Z,12.83
2022-11-16T20:41:49.767Z,12.76
2022-11-16T20:44:22.275Z,12.75
2022-11-16T20:46:52.468Z,12.66
2022-11-16T20:49:21.291Z,12.52
2022-11-16T20:51:51.381Z,12.52
2022-11-16T20:54:19.653Z,12.44
2022-11-16T20:56:49.710Z,12.38
2022-11-16T20:59:17.984Z,12.27
2022-11-16T21:01:48.782Z,12.13
2022-11-16T21:04:17.336Z,12.08
2022-11-16T21:06:45.644Z,12.14
2022-11-16T21:09:22.497Z,12.17
2022-11-16T21:12:08.841Z,12.02
2022-11-16T21:14:37.403Z,12.01
2022-11-16T21:17:06.319Z,11.99
2022-11-16T21:19:34.474Z,11.99
2022-11-16T21:22:03.249Z,12.01
2022-11-16T21:24:34.857Z,12.06
2022-11-16T21:27:03.230Z,12.07
2022-11-16T21:29:32.646Z,12.09
2022-11-16T21:32:01.221Z,12.10
2022-11-16T21:34:32.709Z,12.10
2022-11-16T21:37:04.451Z,12.13
2022-11-16T21:39:34.006Z,12.14
2022-11-16T21:42:02.470Z,12.12
2022-11-16T21:44:41.960Z,12.12
2022-11-16T21:47:10.473Z,12.10
2022-11-16T21:49:54.206Z,12.10
2022-11-16T21:52:28.941Z,12.09
2022-11-16T21:55:01.636Z,12.13
2022-11-16T21:57:30.167Z,12.10
2022-11-16T22:00:01.061Z,12.16
2022-11-16T22:02:40.122Z,12.19
2022-11-16T22:05:27.252Z,12.15
2022-11-16T22:07:56.295Z,12.09
2022-11-16T22:10:26.463Z,12.21
2022-11-16T22:12:55.431Z,12.20
2022-11-16T22:15:24.473Z,12.27
2022-11-16T22:17:53.115Z,12.28
2022-11-16T22:20:21.828Z,12.28
2022-11-16T22:22:50.120Z,12.33
2022-11-16T22:25:18.695Z,12.29
2022-11-16T22:28:19.250Z,12.34
2022-11-16T22:30:38.112Z,12.39
2022-11-16T22:33:06.358Z,12.32
2022-11-16T22:35:34.696Z,12.36
2022-11-16T22:38:04.707Z,12.33
2022-11-16T22:40:33.380Z,12.30
2022-11-16T22:43:03.049Z,12.27
2022-11-16T22:45:33.694Z,12.29
2022-11-16T22:48:01.867Z,12.27
2022-11-16T22:50:30.224Z,12.24
2022-11-16T22:53:00.149Z,12.19
2022-11-16T22:55:28.316Z,12.11
2022-11-16T22:57:56.971Z,12.12
2022-11-16T23:00:26.612Z,12.09
2022-11-16T23:02:56.210Z,12.08
2022-11-16T23:05:24.673Z,12.09
2022-11-16T23:07:52.983Z,12.11
2022-11-16T23:10:21.430Z,12.09
2022-11-16T23:13:07.616Z,12.05
2022-11-16T23:15:52.232Z,12.05
2022-11-16T23:18:20.910Z,12.04
2022-11-16T23:21:07.801Z,12.06
2022-11-16T23:23:53.756Z,12.04
2022-11-16T23:26:42.586Z,12.03
2022-11-16T23:29:12.172Z,12.03
2022-11-16T23:31:42.173Z,12.03
2022-11-16T23:34:11.078Z,12.03
2022-11-16T23:36:39.351Z,12.04
2022-11-16T23:39:07.604Z,12.01
2022-11-16T23:41:53.428Z,11.94
2022-11-16T23:44:22.014Z,11.86
2022-11-16T23:46:51.876Z,11.85
2022-11-16T23:49:22.178Z,11.87
2022-11-16T23:51:51.050Z,11.92
2022-11-16T23:54:19.453Z,11.96
2022-11-16T23:56:48.327Z,11.98
2022-11-16T23:59:16.658Z,11.99
